createdAt,value
2022-12-22T00:01:59.386Z,22.40
2022-12-22T00:05:31.775Z,21.90
2022-12-22T00:08:52.840Z,21.60
2022-12-22T00:12:13.940Z,22.27
2022-12-22T00:15:37.012Z,21.97
2022-12-22T00:18:58.124Z,21.97
2022-12-22T00:22:31.098Z,21.57
2022-12-22T00:25:52.563Z,22.07
2022-12-22T00:29:13.695Z,21.63
2022-12-22T00:32:34.957Z,20.23
2022-12-22T00:35:56.127Z,21.63
2022-12-22T00:39:18.696Z,20.27
2022-12-22T00:42:39.828Z,20.07
2022-12-22T00:46:00.822Z,20.30
2022-12-22T00:49:22.303Z,22.90
2022-12-22T00:52:43.357Z,20.97
2022-12-22T00:56:06.215Z,20.57
2022-12-22T00:59:30.069Z,19.03
2022-12-22T01:02:50.942Z,21.03
2022-12-22T01:06:11.907Z,19.97
2022-12-22T01:09:33.030Z,19.23
2022-12-22T01:12:58.668Z,19.77
2022-12-22T01:16:20.349Z,19.63
2022-12-22T01:19:41.566Z,18.57
2022-12-22T01:23:02.978Z,20.00
2022-12-22T01:26:28.702Z,19.57
2022-12-22T01:29:51.046Z,18.60
2022-12-22T01:33:11.828Z,18.73
2022-12-22T01:36:34.607Z,19.83
2022-12-22T01:39:55.659Z,19.30
2022-12-22T01:43:16.613Z,18.07
2022-12-22T01:46:44.274Z,18.63
2022-12-22T01:50:05.448Z,18.57
2022-12-22T01:53:33.301Z,19.80
2022-12-22T01:56:54.452Z,19.27
2022-12-22T02:00:15.259Z,19.57
2022-12-22T02:03:40.955Z,20.67
2022-12-22T02:07:08.069Z,19.60
2022-12-22T02:10:53.374Z,18.17
2022-12-22T02:14:35.017Z,19.17
2022-12-22T02:18:09.488Z,19.90
2022-12-22T02:21:40.565Z,18.20
2022-12-22T02:25:10.109Z,19.90
2022-12-22T02:28:34.184Z,19.50
2022-12-22T02:31:58.200Z,18.27
2022-12-22T02:35:30.281Z,20.50
2022-12-22T02:39:03.494Z,18.63
2022-12-22T02:42:38.430Z,18.73
2022-12-22T02:46:14.256Z,20.20
2022-12-22T02:49:41.768Z,18.80
2022-12-22T02:53:06.143Z,21.40
2022-12-22T02:56:29.524Z,20.63
2022-12-22T02:59:50.818Z,18.90
2022-12-22T03:03:13.627Z,20.30
2022-12-22T03:06:35.011Z,20.67
2022-12-22T03:09:56.328Z,20.63
2022-12-22T03:13:18.803Z,20.60
2022-12-22T03:16:39.994Z,20.27
2022-12-22T03:20:02.879Z,19.87
2022-12-22T03:23:25.502Z,20.17
2022-12-22T03:26:30.341Z,20.83
2022-12-22T03:29:33.925Z,19.47
2022-12-22T03:32:37.820Z,22.90
2022-12-22T03:35:44.974Z,21.03
2022-12-22T03:38:48.542Z,20.87
2022-12-22T03:42:09.581Z,20.67
2022-12-22T03:45:30.640Z,20.53
2022-12-22T03:48:34.357Z,22.67
2022-12-22T03:51:43.769Z,20.13
2022-12-22T03:54:47.385Z,21.20
2022-12-22T03:57:51.101Z,21.23
2022-12-22T04:00:54.770Z,23.10
2022-12-22T04:03:58.434Z,21.73
2022-12-22T04:07:03.490Z,22.60
2022-12-22T04:10:26.208Z,23.00
2022-12-22T04:13:29.872Z,23.13
2022-12-22T04:16:33.635Z,22.63
2022-12-22T04:19:37.303Z,23.00
2022-12-22T04:22:42.403Z,23.57
2022-12-22T04:25:45.980Z,23.27
2022-12-22T04:28:49.652Z,23.57
2022-12-22T04:31:53.352Z,22.70
2022-12-22T04:34:57.078Z,22.87
2022-12-22T04:38:02.055Z,23.13
2022-12-22T04:41:06.044Z,22.90
2022-12-22T04:44:09.582Z,24.33
2022-12-22T04:47:13.358Z,24.20
2022-12-22T04:50:17.234Z,24.33
2022-12-22T04:53:22.938Z,22.87
2022-12-22T04:56:26.543Z,23.70
2022-12-22T04:59:30.215Z,24.37
2022-12-22T05:02:34.057Z,23.97
2022-12-22T05:05:38.219Z,23.63
2022-12-22T05:08:51.978Z,23.87
2022-12-22T05:11:56.165Z,23.53
2022-12-22T05:14:59.822Z,22.67
2022-12-22T05:18:04.732Z,24.27
2022-12-22T05:21:11.982Z,23.43
2022-12-22T05:24:17.457Z,25.23
2022-12-22T05:27:21.264Z,22.83
2022-12-22T05:30:24.906Z,23.07
2022-12-22T05:33:28.576Z,23.13
2022-12-22T05:36:32.238Z,20.57
2022-12-22T05:39:37.206Z,56.07
2022-12-22T05:42:41.075Z,33.47
2022-12-22T05:45:46.304Z,25.47
2022-12-22T05:48:50.081Z,21.57
2022-12-22T05:51:54.270Z,21.70
2022-12-22T05:54:59.393Z,19.73
2022-12-22T05:58:06.592Z,20.20
2022-12-22T06:01:14.538Z,21.00
2022-12-22T06:04:18.568Z,20.97
2022-12-22T06:07:22.296Z,20.70
2022-12-22T06:10:27.348Z,20.03
2022-12-22T06:13:31.168Z,21.27
2022-12-22T06:16:34.942Z,21.80
2022-12-22T06:19:38.561Z,20.83
2022-12-22T06:22:42.528Z,21.83
2022-12-22T06:25:56.952Z,23.10
2022-12-22T06:29:00.555Z,22.10
2022-12-22T06:32:04.550Z,22.43
2022-12-22T06:35:10.875Z,22.60
2022-12-22T06:38:15.024Z,21.27
2022-12-22T06:41:40.273Z,21.53
2022-12-22T06:44:42.920Z,21.17
2022-12-22T06:47:46.531Z,21.77
2022-12-22T06:50:50.431Z,21.53
2022-12-22T06:53:54.037Z,20.40
2022-12-22T06:56:58.963Z,22.00
2022-12-22T07:00:02.746Z,20.90
2022-12-22T07:03:07.144Z,21.93
2022-12-22T07:06:10.873Z,21.67
2022-12-22T07:09:14.579Z,21.67
2022-12-22T07:12:19.577Z,22.20
2022-12-22T07:15:23.258Z,21.20
2022-12-22T07:18:26.931Z,23.00
2022-12-22T07:21:31.708Z,22.07
2022-12-22T07:24:35.362Z,22.07
2022-12-22T07:27:43.060Z,21.97
2022-12-22T07:30:46.701Z,20.80
2022-12-22T07:33:50.420Z,23.07
2022-12-22T07:36:54.104Z,21.70
2022-12-22T07:39:58.808Z,23.13
2022-12-22T07:43:03.929Z,23.80
2022-12-22T07:46:08.455Z,23.50
2022-12-22T07:49:31.774Z,23.77
2022-12-22T07:52:36.169Z,23.33
2022-12-22T07:55:39.761Z,24.23
2022-12-22T07:58:44.709Z,23.20
2022-12-22T08:01:48.635Z,24.37
2022-12-22T08:04:52.811Z,24.73
2022-12-22T08:07:56.386Z,23.33
2022-12-22T08:11:03.379Z,23.90
2022-12-22T08:14:08.451Z,23.33
2022-12-22T08:17:12.102Z,23.83
2022-12-22T08:20:15.896Z,25.53
2022-12-22T08:23:19.552Z,23.67
2022-12-22T08:26:31.133Z,24.27
2022-12-22T08:29:42.700Z,25.07
2022-12-22T08:32:50.968Z,26.60
2022-12-22T08:35:56.225Z,32.00
2022-12-22T08:39:01.409Z,28.20
2022-12-22T08:42:08.317Z,35.20
2022-12-22T08:45:13.453Z,37.43
2022-12-22T08:48:17.145Z,35.00
2022-12-22T08:51:20.754Z,29.00
2022-12-22T08:54:24.852Z,28.33
2022-12-22T08:57:28.848Z,27.83
2022-12-22T09:00:33.902Z,31.73
2022-12-22T09:03:37.866Z,30.07
2022-12-22T09:06:42.334Z,29.67
2022-12-22T09:09:46.729Z,29.73
2022-12-22T09:12:51.471Z,30.77
2022-12-22T09:15:56.549Z,31.17
2022-12-22T09:19:01.272Z,31.03
2022-12-22T09:22:05.369Z,31.13
2022-12-22T09:25:11.866Z,32.17
2022-12-22T09:28:15.504Z,31.07
2022-12-22T09:31:21.672Z,30.80
2022-12-22T09:34:25.590Z,28.80
2022-12-22T09:37:29.219Z,28.83
2022-12-22T09:40:34.455Z,26.73
2022-12-22T09:43:38.741Z,28.47
2022-12-22T09:46:44.211Z,26.87
2022-12-22T09:49:48.078Z,28.57
2022-12-22T09:52:56.275Z,28.03
2022-12-22T09:56:00.132Z,25.90
2022-12-22T09:59:03.734Z,27.00
2022-12-22T10:02:31.648Z,25.87
2022-12-22T10:05:46.946Z,26.40
2022-12-22T10:08:50.706Z,27.23
2022-12-22T10:11:56.051Z,27.43
2022-12-22T10:14:59.653Z,25.37
2022-12-22T10:18:14.542Z,26.13
2022-12-22T10:21:18.881Z,25.30
2022-12-22T10:24:36.956Z,27.87
2022-12-22T10:27:45.519Z,27.40
2022-12-22T10:31:11.897Z,27.00
2022-12-22T10:34:20.750Z,27.80
2022-12-22T10:37:34.962Z,26.23
2022-12-22T10:40:46.050Z,28.20
2022-12-22T10:43:53.159Z,26.80
2022-12-22T10:47:01.005Z,26.73
2022-12-22T10:50:07.832Z,25.63
2022-12-22T10:53:11.446Z,24.70
2022-12-22T10:56:27.454Z,24.37
2022-12-22T10:59:32.646Z,23.87
2022-12-22T11:02:39.190Z,22.07
2022-12-22T11:05:47.061Z,22.27
2022-12-22T11:08:51.894Z,22.03
2022-12-22T11:12:06.081Z,21.83
2022-12-22T11:15:27.240Z,22.27
2022-12-22T11:19:04.904Z,23.37
2022-12-22T11:22:22.301Z,20.63
2022-12-22T11:25:40.364Z,20.37
2022-12-22T11:29:13.160Z,21.40
2022-12-22T11:32:45.230Z,17.87
2022-12-22T11:35:59.137Z,19.03
2022-12-22T11:39:13.747Z,18.23
2022-12-22T11:42:50.949Z,19.70
2022-12-22T11:46:13.037Z,23.10
2022-12-22T11:50:25.500Z,19.90
2022-12-22T11:54:17.696Z,18.97
2022-12-22T11:57:34.555Z,20.90
2022-12-22T12:04:50.042Z,19.93
2022-12-22T12:08:05.764Z,20.83
2022-12-22T12:11:22.217Z,19.13
2022-12-22T12:14:37.440Z,19.03
2022-12-22T12:18:04.334Z,17.27
2022-12-22T12:21:29.298Z,16.20
2022-12-22T12:24:50.015Z,16.00
2022-12-22T12:28:13.250Z,16.97
2022-12-22T12:31:26.514Z,16.00
2022-12-22T12:34:37.597Z,14.60
2022-12-22T12:37:46.701Z,15.10
2022-12-22T12:40:58.417Z,14.90
2022-12-22T12:44:05.781Z,13.47
2022-12-22T12:47:27.063Z,12.83
2022-12-22T12:50:37.827Z,13.17
2022-12-22T12:54:24.376Z,11.10
2022-12-22T12:57:31.405Z,9.83
2022-12-22T13:00:53.792Z,10.47
2022-12-22T13:04:04.283Z,8.90
2022-12-22T13:07:09.059Z,8.07
2022-12-22T13:10:21.729Z,8.23
2022-12-22T13:13:52.501Z,6.73
2022-12-22T13:17:34.675Z,8.23
2022-12-22T13:20:40.241Z,7.80
2022-12-22T13:24:22.866Z,8.20
2022-12-22T13:27:15.824Z,7.13
2022-12-22T13:30:22.984Z,8.00
2022-12-22T13:33:39.308Z,8.03
2022-12-22T13:36:46.941Z,8.40
2022-12-22T13:40:18.512Z,8.00
2022-12-22T13:43:22.888Z,8.23
2022-12-22T13:46:27.946Z,7.17
2022-12-22T13:50:07.008Z,7.93
2022-12-22T13:53:03.522Z,6.73
2022-12-22T13:56:09.777Z,7.07
2022-12-22T13:59:29.335Z,9.03
2022-12-22T14:02:34.723Z,7.43
2022-12-22T14:05:38.365Z,7.67
2022-12-22T14:08:43.389Z,7.23
2022-12-22T14:11:53.163Z,7.93
2022-12-22T14:15:01.206Z,6.97
2022-12-22T14:18:05.772Z,7.00
2022-12-22T14:21:12.090Z,7.00
2022-12-22T14:24:25.215Z,7.10
2022-12-22T14:27:37.263Z,8.00
2022-12-22T14:30:47.902Z,6.27
2022-12-22T14:33:57.124Z,5.73
2022-12-22T14:37:02.475Z,6.87
2022-12-22T14:40:16.149Z,5.70
2022-12-22T14:43:31.648Z,12.20
2022-12-22T14:46:39.129Z,8.83
2022-12-22T14:49:50.633Z,9.73
2022-12-22T14:52:57.541Z,7.87
2022-12-22T14:56:02.900Z,7.93
2022-12-22T14:59:13.188Z,7.73
2022-12-22T15:02:32.215Z,7.27
2022-12-22T15:05:42.195Z,7.73
2022-12-22T15:08:45.786Z,7.03
2022-12-22T15:11:56.882Z,7.10
2022-12-22T15:15:02.187Z,6.87
2022-12-22T15:18:06.074Z,6.43
2022-12-22T15:21:14.790Z,7.57
2022-12-22T15:24:20.032Z,6.00
2022-12-22T15:27:25.069Z,6.47
2022-12-22T15:30:28.791Z,6.57
2022-12-22T15:33:32.893Z,7.43
2022-12-22T15:36:37.064Z,6.57
2022-12-22T15:39:40.917Z,6.70
2022-12-22T15:42:47.343Z,6.70
2022-12-22T15:45:51.168Z,7.87
2022-12-22T15:48:55.000Z,6.40
2022-12-22T15:52:04.069Z,8.63
2022-12-22T15:55:11.211Z,7.53
2022-12-22T15:58:20.404Z,7.00
2022-12-22T16:01:24.136Z,7.80
2022-12-22T16:04:28.516Z,7.30
2022-12-22T16:07:33.000Z,6.83
2022-12-22T16:10:36.758Z,7.13
2022-12-22T16:13:41.848Z,6.70
2022-12-22T16:16:47.334Z,8.03
2022-12-22T16:19:51.267Z,6.93
2022-12-22T16:22:55.488Z,7.17
2022-12-22T16:26:02.483Z,7.30
2022-12-22T16:29:16.147Z,8.03
2022-12-22T16:32:26.773Z,7.40
2022-12-22T16:35:33.099Z,7.80
2022-12-22T16:38:36.865Z,7.37
2022-12-22T16:41:40.950Z,8.27
2022-12-22T16:45:01.809Z,7.60
2022-12-22T16:48:14.063Z,7.33
2022-12-22T16:51:23.775Z,8.93
2022-12-22T16:54:27.353Z,7.70
2022-12-22T16:57:31.040Z,7.73
2022-12-22T17:00:38.548Z,9.10
2022-12-22T17:03:43.213Z,9.00
2022-12-22T17:06:50.374Z,8.20
2022-12-22T17:09:59.051Z,8.17
2022-12-22T17:13:04.259Z,8.77
2022-12-22T17:16:20.072Z,9.23
2022-12-22T17:19:23.899Z,7.97
2022-12-22T17:22:31.522Z,7.73
2022-12-22T17:25:35.417Z,7.83
2022-12-22T17:28:41.113Z,9.30
2022-12-22T17:31:46.111Z,8.37
2022-12-22T17:34:50.353Z,9.00
2022-12-22T17:37:55.353Z,9.10
2022-12-22T17:40:58.987Z,8.18
2022-12-22T17:44:02.560Z,10.53
2022-12-22T17:47:07.811Z,10.63
2022-12-22T17:50:16.035Z,9.73
2022-12-22T17:53:22.102Z,9.27
2022-12-22T17:56:28.643Z,10.33
2022-12-22T17:59:32.314Z,10.77
2022-12-22T18:02:37.489Z,9.60
2022-12-22T18:05:45.556Z,9.70
2022-12-22T18:08:49.712Z,9.17
2022-12-22T18:11:54.362Z,9.77
2022-12-22T18:14:57.907Z,10.20
2022-12-22T18:18:02.918Z,10.40
2022-12-22T18:21:08.282Z,9.60
2022-12-22T18:24:18.779Z,10.47
2022-12-22T18:27:24.503Z,10.47
2022-12-22T18:30:32.292Z,12.30
2022-12-22T18:33:37.828Z,11.27
2022-12-22T18:36:45.535Z,9.77
2022-12-22T18:39:49.569Z,11.33
2022-12-22T18:42:54.815Z,12.37
2022-12-22T18:45:58.943Z,14.23
2022-12-22T18:49:06.034Z,13.37
2022-12-22T18:52:19.523Z,11.37
2022-12-22T18:55:26.666Z,12.73
2022-12-22T18:58:30.263Z,12.03
2022-12-22T19:01:34.313Z,12.60
2022-12-22T19:04:39.788Z,11.60
2022-12-22T19:07:43.803Z,11.77
2022-12-22T19:10:52.315Z,12.23
2022-12-22T19:13:56.379Z,11.17
2022-12-22T19:17:02.187Z,12.83
2022-12-22T19:20:15.845Z,11.50
2022-12-22T19:23:21.858Z,14.00
2022-12-22T19:26:29.009Z,13.57
2022-12-22T19:29:33.010Z,12.77
2022-12-22T19:32:46.265Z,14.90
2022-12-22T19:35:51.887Z,13.30
2022-12-22T19:39:03.394Z,13.27
2022-12-22T19:42:16.526Z,14.30
2022-12-22T19:45:35.867Z,13.23
2022-12-22T19:48:39.857Z,15.40
2022-12-22T19:51:45.383Z,15.77
2022-12-22T19:54:49.408Z,18.17
2022-12-22T19:57:54.177Z,17.53
2022-12-22T20:00:58.138Z,16.13
2022-12-22T20:04:02.013Z,16.03
2022-12-22T20:07:14.711Z,16.33
2022-12-22T20:10:19.105Z,15.97
2022-12-22T20:13:25.475Z,20.27
2022-12-22T20:16:29.325Z,19.80
2022-12-22T20:19:33.112Z,19.47
2022-12-22T20:22:39.483Z,16.27
2022-12-22T20:25:47.809Z,16.43
2022-12-22T20:28:52.017Z,19.67
2022-12-22T20:31:55.944Z,18.77
2022-12-22T20:34:59.602Z,17.63
2022-12-22T20:38:21.686Z,18.73
2022-12-22T20:41:26.312Z,18.17
2022-12-22T20:44:29.957Z,18.67
2022-12-22T20:47:34.811Z,19.00
2022-12-22T20:50:38.448Z,18.27
2022-12-22T20:53:44.414Z,20.40
2022-12-22T20:56:48.065Z,20.53
2022-12-22T20:59:56.080Z,19.03
2022-12-22T21:03:00.473Z,20.17
2022-12-22T21:06:22.228Z,18.57
2022-12-22T21:09:27.411Z,21.97
2022-12-22T21:12:31.049Z,22.00
2022-12-22T21:15:34.856Z,20.60
2022-12-22T21:18:38.453Z,19.57
2022-12-22T21:21:42.059Z,18.83
2022-12-22T21:24:47.020Z,19.90
2022-12-22T21:27:52.901Z,21.67
2022-12-22T21:30:56.569Z,20.50
2022-12-22T21:34:00.297Z,21.03
2022-12-22T21:37:04.618Z,20.70
2022-12-22T21:40:20.508Z,19.30
2022-12-22T21:43:24.122Z,20.20
2022-12-22T21:46:27.929Z,19.93
2022-12-22T21:49:33.967Z,20.27
2022-12-22T21:52:37.698Z,20.43
2022-12-22T21:55:43.867Z,18.40
2022-12-22T21:58:47.594Z,19.77
2022-12-22T22:01:53.029Z,18.70
2022-12-22T22:04:56.775Z,19.37
2022-12-22T22:08:01.813Z,20.50
2022-12-22T22:11:18.678Z,20.43
2022-12-22T22:14:22.688Z,19.33
2022-12-22T22:17:26.391Z,20.60
2022-12-22T22:20:33.230Z,19.87
2022-12-22T22:23:37.818Z,20.00
2022-12-22T22:26:45.486Z,19.93
2022-12-22T22:29:49.170Z,18.80
2022-12-22T22:32:53.681Z,19.70
2022-12-22T22:36:03.838Z,20.23
2022-12-22T22:39:10.325Z,20.10
2022-12-22T22:42:15.381Z,18.87
2022-12-22T22:45:24.130Z,20.70
2022-12-22T22:48:28.073Z,19.03
2022-12-22T22:51:31.943Z,20.87
2022-12-22T22:54:36.731Z,20.30
2022-12-22T22:57:42.778Z,20.40
2022-12-22T23:00:46.539Z,21.87
2022-12-22T23:03:50.278Z,20.07
2022-12-22T23:06:54.932Z,20.10
2022-12-22T23:09:58.700Z,20.43
2022-12-22T23:13:03.768Z,20.27
2022-12-22T23:16:07.722Z,20.87
2022-12-22T23:19:11.471Z,22.37
2022-12-22T23:22:15.184Z,22.17
2022-12-22T23:25:18.888Z,22.37
2022-12-22T23:28:24.939Z,22.37
2022-12-22T23:31:28.681Z,23.47
2022-12-22T23:34:32.714Z,22.17
2022-12-22T23:37:36.394Z,22.37
2022-12-22T23:40:52.416Z,21.23
2022-12-22T23:43:58.466Z,20.90
2022-12-22T23:47:02.102Z,22.03
2022-12-22T23:50:06.937Z,22.23
2022-12-22T23:53:10.614Z,23.03
2022-12-22T23:56:14.375Z,21.93
2022-12-22T23:59:19.411Z,22.03
